Time;durP1;ratioP1;P1;durP2;ratioP2;P2;SDS_P1;SDS_P2;PMS_P1;PMS_P2;Temp;Humidity;BMP_temperature;BMP_pressure;BME280_temperature;BME280_humidity;BME280_pressure;Samples;Min_cycle;Max_cycle;Signal;HPM_P1;HPM_P2
2021/08/28 00:02:23;;;;;;;3.60;2.20;;;25.40;41.30;;;;;;4953922;29;20027;-38
2021/08/28 00:04:50;;;;;;;4.45;2.47;;;25.50;41.20;;;;;;4937096;29;20031;-41
2021/08/28 00:07:16;;;;;;;4.90;2.30;;;25.50;41.30;;;;;;4953206;28;20085;-40
2021/08/28 00:10:00;;;;;;;4.20;2.30;;;25.50;41.30;;;;;;4954445;29;20376;-41
2021/08/28 00:12:26;;;;;;;4.75;2.17;;;25.50;41.20;;;;;;4953711;29;20101;-40
2021/08/28 00:14:51;;;;;;;3.08;2.03;;;25.50;41.00;;;;;;4954094;29;20028;-40
2021/08/28 00:17:17;;;;;;;3.97;2.22;;;25.50;41.50;;;;;;4953882;29;20114;-43
2021/08/28 00:19:44;;;;;;;4.07;2.03;;;25.50;41.40;;;;;;4953926;29;20082;-40
2021/08/28 00:22:10;;;;;;;3.78;2.17;;;25.60;41.30;;;;;;4952221;29;20485;-40
2021/08/28 00:24:36;;;;;;;4.82;2.17;;;25.60;41.30;;;;;;4953996;29;20042;-40
2021/08/28 00:27:01;;;;;;;3.55;2.15;;;25.60;41.00;;;;;;4953764;29;20495;-40
2021/08/28 00:29:27;;;;;;;3.45;2.00;;;25.60;41.00;;;;;;4953286;29;20531;-44
2021/08/28 00:31:53;;;;;;;2.85;1.70;;;25.60;41.00;;;;;;4953748;29;20086;-41
2021/08/28 00:34:18;;;;;;;3.00;1.70;;;25.60;40.90;;;;;;4951922;29;20485;-42
2021/08/28 00:36:44;;;;;;;3.40;1.90;;;25.60;40.90;;;;;;4954140;29;20435;-42
2021/08/28 00:39:10;;;;;;;4.55;1.80;;;25.70;41.00;;;;;;4952365;29;20473;-42
2021/08/28 00:41:35;;;;;;;4.47;1.90;;;25.60;40.80;;;;;;4954384;29;20473;-40
2021/08/28 00:44:03;;;;;;;2.80;1.85;;;25.70;41.10;;;;;;4953532;29;20027;-38
2021/08/28 00:46:29;;;;;;;2.90;1.60;;;25.70;41.00;;;;;;4953009;29;20046;-41
2021/08/28 00:48:54;;;;;;;2.95;1.73;;;25.70;41.00;;;;;;4952812;29;20337;-41
2021/08/28 00:51:20;;;;;;;4.00;2.17;;;25.70;40.90;;;;;;4952047;29;20118;-41
2021/08/28 00:53:46;;;;;;;2.97;1.60;;;25.70;40.80;;;;;;4953800;29;20531;-39
2021/08/28 00:56:12;;;;;;;3.92;1.90;;;25.70;41.00;;;;;;4953138;29;20174;-40
2021/08/28 00:58:38;;;;;;;3.60;2.03;;;25.70;40.80;;;;;;4952118;29;20114;-45
2021/08/28 01:01:10;;;;;;;2.33;1.52;;;25.80;40.80;;;;;;4952362;29;20031;-42
2021/08/28 01:03:38;;;;;;;3.10;1.67;;;25.70;40.80;;;;;;4953677;29;20031;-40
2021/08/28 01:06:12;;;;;;;2.92;1.73;;;25.80;40.80;;;;;;4952438;29;20031;-44
2021/08/28 01:08:44;;;;;;;3.22;1.90;;;25.80;40.80;;;;;;4953612;29;20019;-38
2021/08/28 01:11:26;;;;;;;1.98;1.30;;;25.80;40.70;;;;;;4953032;29;20117;-44
2021/08/28 01:14:13;;;;;;;2.65;1.48;;;25.80;40.80;;;;;;4953824;29;20104;-38
2021/08/28 01:16:47;;;;;;;2.92;1.55;;;25.80;40.60;;;;;;4953409;29;20035;-41
2021/08/28 01:19:21;;;;;;;2.55;1.55;;;25.80;40.70;;;;;;4954916;28;20027;-41
2021/08/28 01:21:47;;;;;;;3.28;1.67;;;25.80;40.70;;;;;;4957292;29;20051;-43
2021/08/28 01:24:15;;;;;;;3.05;1.70;;;25.80;40.80;;;;;;4956738;29;20485;-41
2021/08/28 01:26:53;;;;;;;2.75;1.70;;;25.80;40.80;;;;;;4957142;29;20117;-46
2021/08/28 01:29:26;;;;;;;2.33;1.30;;;25.80;41.40;;;;;;4956547;29;20034;-40
2021/08/28 01:31:53;;;;;;;2.22;1.40;;;25.80;40.70;;;;;;4955991;29;20039;-43
2021/08/28 01:34:20;;;;;;;2.75;1.50;;;25.90;40.80;;;;;;4956653;29;20114;-39
2021/08/28 01:36:47;;;;;;;4.20;1.65;;;25.90;40.60;;;;;;4955973;29;20042;-44
2021/08/28 01:39:14;;;;;;;2.90;1.38;;;25.90;40.50;;;;;;4957157;29;20070;-38
2021/08/28 01:41:43;;;;;;;2.22;1.30;;;25.90;40.60;;;;;;4956890;29;20543;-44
2021/08/28 01:44:12;;;;;;;2.65;1.60;;;25.90;40.60;;;;;;4955866;29;20035;-39
2021/08/28 01:46:39;;;;;;;2.15;1.30;;;25.90;40.60;;;;;;4956886;29;20067;-38
2021/08/28 01:49:06;;;;;;;4.03;1.27;;;25.90;40.70;;;;;;4957028;29;20106;-42
2021/08/28 01:51:32;;;;;;;2.22;1.30;;;25.90;40.50;;;;;;4956281;29;20203;-41
2021/08/28 01:53:58;;;;;;;1.70;1.13;;;25.90;40.50;;;;;;4956783;29;20028;-37
2021/08/28 01:56:24;;;;;;;2.40;1.30;;;25.90;40.60;;;;;;4956084;29;20382;-43
2021/08/28 01:58:53;;;;;;;1.92;1.15;;;25.90;40.60;;;;;;4956549;29;20034;-38
2021/08/28 02:01:19;;;;;;;1.85;1.17;;;25.90;40.60;;;;;;4956072;29;20059;-40
2021/08/28 02:03:45;;;;;;;2.70;1.30;;;25.90;40.60;;;;;;4955664;29;20543;-42
2021/08/28 02:06:24;;;;;;;1.85;1.20;;;25.90;40.60;;;;;;4955171;29;20039;-42
2021/08/28 02:08:58;;;;;;;2.85;1.30;;;25.90;40.70;;;;;;4956790;29;20023;-41
2021/08/28 02:11:38;;;;;;;2.25;1.50;;;25.90;40.60;;;;;;4955983;29;20031;-38
2021/08/28 02:14:14;;;;;;;2.10;1.13;;;25.90;40.60;;;;;;4955311;29;20122;-40
2021/08/28 02:16:44;;;;;;;2.33;1.23;;;25.90;40.60;;;;;;4956237;29;20473;-39
2021/08/28 02:19:28;;;;;;;2.10;1.20;;;25.90;40.60;;;;;;4956578;29;20035;-38
2021/08/28 02:21:58;;;;;;;3.00;1.23;;;25.90;40.60;;;;;;4955243;29;20058;-38
2021/08/28 02:24:29;;;;;;;1.98;1.35;;;25.90;40.60;;;;;;4954991;29;20033;-41
2021/08/28 02:27:07;;;;;;;2.70;1.35;;;25.90;40.60;;;;;;4939317;29;20090;-40
2021/08/28 02:29:43;;;;;;;2.22;1.25;;;25.90;40.60;;;;;;4955363;28;20034;-39
2021/08/28 02:32:10;;;;;;;3.42;1.20;;;25.90;40.50;;;;;;4954727;29;20035;-39
2021/08/28 02:34:38;;;;;;;2.65;1.17;;;25.90;40.50;;;;;;4954770;29;20294;-39
2021/08/28 02:37:06;;;;;;;1.70;1.25;;;25.90;40.60;;;;;;4955686;29;20034;-40
2021/08/28 02:39:34;;;;;;;1.73;1.13;;;25.90;40.60;;;;;;4954749;29;20465;-41
2021/08/28 02:42:01;;;;;;;2.05;1.00;;;25.90;40.60;;;;;;4956050;29;20036;-41
2021/08/28 02:44:28;;;;;;;2.10;1.35;;;25.90;40.50;;;;;;4954431;29;20031;-44
2021/08/28 02:46:55;;;;;;;1.85;1.10;;;25.90;40.60;;;;;;4955842;29;20448;-40
2021/08/28 02:49:22;;;;;;;2.88;1.33;;;25.90;40.60;;;;;;4955112;29;20105;-39
2021/08/28 02:51:49;;;;;;;1.92;1.13;;;25.90;40.50;;;;;;4955949;29;20155;-43
2021/08/28 02:54:20;;;;;;;2.40;1.35;;;25.90;40.60;;;;;;4954909;29;20045;-42
2021/08/28 02:56:49;;;;;;;1.58;1.23;;;25.90;40.60;;;;;;4956063;29;20055;-41
2021/08/28 02:59:18;;;;;;;2.80;1.25;;;26.00;40.60;;;;;;4955761;29;20114;-41
2021/08/28 03:01:45;;;;;;;1.73;1.10;;;26.00;40.60;;;;;;4954657;29;20035;-40
2021/08/28 03:04:17;;;;;;;1.40;0.95;;;26.00;40.60;;;;;;4955089;29;20465;-39
2021/08/28 03:06:46;;;;;;;2.22;1.20;;;25.90;40.60;;;;;;4939013;29;20039;-38
2021/08/28 03:09:12;;;;;;;1.80;1.30;;;26.00;40.70;;;;;;4938621;29;20029;-41
2021/08/28 03:11:38;;;;;;;1.85;1.05;;;25.90;40.60;;;;;;4955006;29;20030;-39
2021/08/28 03:14:06;;;;;;;1.80;1.00;;;25.90;40.60;;;;;;4954935;29;20399;-39
2021/08/28 03:16:33;;;;;;;1.67;1.10;;;26.00;40.70;;;;;;4956277;29;20035;-39
2021/08/28 03:19:00;;;;;;;2.03;1.17;;;26.00;40.70;;;;;;4955380;29;20031;-38
2021/08/28 03:21:28;;;;;;;1.88;1.08;;;26.00;40.70;;;;;;4954591;29;20127;-38
2021/08/28 03:23:56;;;;;;;1.90;1.27;;;26.00;40.80;;;;;;4937998;29;20030;-40
2021/08/28 03:26:24;;;;;;;2.63;1.05;;;25.90;40.60;;;;;;4953536;29;20031;-40
2021/08/28 03:28:52;;;;;;;2.92;1.20;;;26.00;40.80;;;;;;4955318;29;20023;-40
2021/08/28 03:31:20;;;;;;;1.65;1.20;;;25.90;40.70;;;;;;4955291;29;20031;-39
2021/08/28 03:33:47;;;;;;;1.98;1.13;;;26.00;40.70;;;;;;4953925;29;20596;-38
2021/08/28 03:36:15;;;;;;;1.88;1.00;;;25.90;40.70;;;;;;4938102;29;20050;-40
2021/08/28 03:38:41;;;;;;;1.30;0.98;;;26.00;40.70;;;;;;4954461;29;20037;-40
2021/08/28 03:41:09;;;;;;;3.55;1.20;;;26.00;40.70;;;;;;4955091;28;20465;-43
2021/08/28 03:43:35;;;;;;;2.00;1.10;;;26.00;40.70;;;;;;4954468;29;20027;-40
2021/08/28 03:46:01;;;;;;;2.75;1.08;;;25.90;40.70;;;;;;4954412;29;20477;-39
2021/08/28 03:48:29;;;;;;;2.03;1.25;;;26.00;40.70;;;;;;4953057;29;20023;-39
2021/08/28 03:50:56;;;;;;;1.85;1.00;;;26.00;40.70;;;;;;4954977;29;20046;-42
2021/08/28 03:53:22;;;;;;;2.03;1.10;;;26.00;40.70;;;;;;4954076;29;20035;-44
2021/08/28 03:55:48;;;;;;;2.20;1.10;;;26.00;40.70;;;;;;4951971;29;20047;-41
2021/08/28 03:58:13;;;;;;;1.45;0.95;;;26.00;40.70;;;;;;4953573;29;20444;-39
2021/08/28 04:00:39;;;;;;;2.95;0.95;;;26.00;40.70;;;;;;4954459;29;20385;-41
2021/08/28 04:03:05;;;;;;;1.77;1.17;;;26.00;40.70;;;;;;4954248;29;20027;-40
2021/08/28 04:05:31;;;;;;;3.15;1.20;;;26.00;40.60;;;;;;4952083;29;20038;-39
2021/08/28 04:07:56;;;;;;;1.75;1.00;;;26.00;40.60;;;;;;4954147;29;20074;-40
2021/08/28 04:10:22;;;;;;;3.08;1.35;;;26.00;40.60;;;;;;4953647;29;20058;-44
2021/08/28 04:12:48;;;;;;;2.35;1.20;;;26.00;40.60;;;;;;4952745;29;20027;-42
2021/08/28 04:15:14;;;;;;;3.70;1.10;;;26.00;40.60;;;;;;4953652;29;20385;-41
2021/08/28 04:17:39;;;;;;;2.03;1.20;;;26.00;40.60;;;;;;4951969;29;20385;-41
2021/08/28 04:20:06;;;;;;;4.00;2.75;;;26.00;40.60;;;;;;4953969;29;20027;-42
2021/08/28 04:22:32;;;;;;;5.47;3.00;;;26.00;40.60;;;;;;4953204;29;20032;-42
2021/08/28 04:24:57;;;;;;;3.95;2.80;;;26.00;40.60;;;;;;4953344;29;20023;-40
2021/08/28 04:27:23;;;;;;;5.68;2.53;;;26.00;40.60;;;;;;4952805;29;20067;-50
2021/08/28 04:30:07;;;;;;;7.05;3.22;;;26.00;40.70;;;;;;4952794;29;20104;-39
2021/08/28 04:32:33;;;;;;;3.50;2.45;;;26.00;40.70;;;;;;4953341;29;20027;-42
2021/08/28 04:34:59;;;;;;;7.15;2.80;;;26.00;40.70;;;;;;4954373;29;20034;-38
2021/08/28 04:37:25;;;;;;;4.07;2.22;;;26.00;40.70;;;;;;4953655;29;20035;-45
2021/08/28 04:39:51;;;;;;;4.05;2.50;;;26.00;40.80;;;;;;4953730;29;20409;-40
2021/08/28 04:42:17;;;;;;;7.55;2.20;;;26.00;40.80;;;;;;4952753;29;20114;-39
2021/08/28 04:44:42;;;;;;;3.60;2.25;;;26.00;40.80;;;;;;4953412;29;20030;-38
2021/08/28 04:47:08;;;;;;;5.85;2.33;;;26.00;40.80;;;;;;4937157;29;20098;-38
2021/08/28 04:49:34;;;;;;;2.97;2.00;;;26.00;40.80;;;;;;4953398;29;20456;-40
2021/08/28 04:51:59;;;;;;;6.70;2.22;;;26.00;40.80;;;;;;4954312;29;20027;-38
2021/08/28 04:54:26;;;;;;;3.47;2.20;;;26.00;40.80;;;;;;4957824;28;20372;-41
2021/08/28 04:56:53;;;;;;;5.63;1.83;;;26.00;40.80;;;;;;4960173;29;20067;-43
2021/08/28 04:59:19;;;;;;;3.20;2.05;;;26.00;40.80;;;;;;4959234;29;20023;-38
2021/08/28 05:01:45;;;;;;;3.03;2.10;;;26.00;40.80;;;;;;4959743;29;20095;-39
2021/08/28 05:04:11;;;;;;;4.13;2.13;;;26.00;40.80;;;;;;4960650;29;20028;-38
2021/08/28 05:06:36;;;;;;;5.90;1.95;;;26.00;40.80;;;;;;4959949;28;20035;-39
2021/08/28 05:09:03;;;;;;;6.28;2.30;;;26.00;40.80;;;;;;4960307;29;20031;-38
2021/08/28 05:11:29;;;;;;;3.85;2.00;;;26.00;40.90;;;;;;4958596;28;20027;-39
2021/08/28 05:13:55;;;;;;;4.13;2.00;;;26.00;40.90;;;;;;4959267;28;20063;-39
2021/08/28 05:16:21;;;;;;;4.80;2.17;;;26.00;40.90;;;;;;4959095;29;20126;-38
2021/08/28 05:18:46;;;;;;;5.38;1.98;;;26.00;40.90;;;;;;4958403;28;20314;-38
2021/08/28 05:21:12;;;;;;;7.90;2.10;;;26.00;40.90;;;;;;4960411;29;20385;-40
2021/08/28 05:23:39;;;;;;;6.60;1.92;;;26.00;41.00;;;;;;4959868;28;20027;-37
2021/08/28 05:26:04;;;;;;;4.80;1.75;;;26.00;40.90;;;;;;4961249;29;20041;-38
2021/08/28 05:28:30;;;;;;;4.40;2.00;;;26.00;40.90;;;;;;4959577;28;20384;-42
2021/08/28 05:30:56;;;;;;;4.70;1.90;;;26.00;41.00;;;;;;4960027;29;20392;-39
2021/08/28 05:33:22;;;;;;;5.72;1.70;;;26.10;41.00;;;;;;4960080;28;20544;-40
2021/08/28 05:35:47;;;;;;;5.35;1.85;;;26.00;41.00;;;;;;4959490;28;20579;-41
2021/08/28 05:38:14;;;;;;;5.93;1.98;;;26.00;41.00;;;;;;4959939;29;20086;-41
2021/08/28 05:40:40;;;;;;;2.63;1.70;;;26.10;41.00;;;;;;4959850;29;20028;-41
2021/08/28 05:43:06;;;;;;;4.00;1.60;;;26.00;41.00;;;;;;4943080;28;20042;-41
2021/08/28 05:45:32;;;;;;;3.65;1.40;;;26.10;41.10;;;;;;4958052;29;20404;-40
2021/08/28 05:47:58;;;;;;;4.20;1.90;;;26.10;41.10;;;;;;4959580;28;20503;-39
2021/08/28 05:50:23;;;;;;;5.45;1.63;;;26.10;41.10;;;;;;4958574;29;20469;-42
2021/08/28 05:52:49;;;;;;;3.90;1.63;;;26.00;41.00;;;;;;4959364;29;20034;-42
2021/08/28 05:55:15;;;;;;;4.10;1.52;;;26.10;41.10;;;;;;4959750;28;20392;-45
2021/08/28 05:57:42;;;;;;;11.27;1.70;;;26.10;41.10;;;;;;4959435;29;20035;-39
2021/08/28 06:00:09;;;;;;;4.18;1.70;;;26.10;41.10;;;;;;4960000;29;20050;-40
2021/08/28 06:02:38;;;;;;;2.90;1.50;;;26.10;41.20;;;;;;4958177;28;20114;-39
2021/08/28 06:05:12;;;;;;;5.18;1.95;;;26.10;41.20;;;;;;4958394;28;20050;-43
2021/08/28 06:07:38;;;;;;;3.20;1.92;;;26.00;41.80;;;;;;4955148;29;20023;-39
2021/08/28 06:10:07;;;;;;;4.90;1.58;;;26.10;41.20;;;;;;4956138;29;20396;-43
2021/08/28 06:12:34;;;;;;;4.18;1.48;;;26.10;41.20;;;;;;4938693;29;20038;-39
2021/08/28 06:15:00;;;;;;;5.47;2.00;;;26.10;41.10;;;;;;4956588;29;20027;-40
2021/08/28 06:17:26;;;;;;;2.55;1.40;;;26.10;41.20;;;;;;4955914;29;20117;-40
2021/08/28 06:19:53;;;;;;;2.63;1.50;;;26.10;41.10;;;;;;4955644;29;20051;-40
2021/08/28 06:22:18;;;;;;;3.15;1.50;;;26.10;41.20;;;;;;4954623;29;20292;-43
2021/08/28 06:24:44;;;;;;;6.00;1.58;;;26.10;41.20;;;;;;4955254;29;20031;-41
2021/08/28 06:27:10;;;;;;;3.80;1.67;;;26.10;41.20;;;;;;4954667;29;20105;-44
2021/08/28 06:29:36;;;;;;;2.50;1.30;;;26.10;41.20;;;;;;4954431;29;20120;-45
2021/08/28 06:32:03;;;;;;;5.95;1.55;;;26.10;41.20;;;;;;4955624;29;20500;-42
2021/08/28 06:34:30;;;;;;;7.90;1.90;;;26.10;41.20;;;;;;4938734;29;20082;-43
2021/08/28 06:36:56;;;;;;;3.30;1.50;;;26.10;41.20;;;;;;4955998;29;20046;-42
2021/08/28 06:39:21;;;;;;;7.18;1.42;;;26.10;41.20;;;;;;4956151;29;20031;-43
2021/08/28 06:41:47;;;;;;;3.13;1.60;;;26.10;41.20;;;;;;4955427;29;20023;-40
2021/08/28 06:44:13;;;;;;;5.30;1.38;;;26.10;41.20;;;;;;4956228;29;20441;-40
2021/08/28 06:46:38;;;;;;;4.95;1.42;;;26.20;41.20;;;;;;4954157;29;20039;-39
2021/08/28 06:49:04;;;;;;;3.92;1.48;;;26.20;41.10;;;;;;4955110;29;20031;-42
2021/08/28 06:51:31;;;;;;;3.83;1.80;;;26.20;41.10;;;;;;4938929;29;20038;-40
2021/08/28 06:53:57;;;;;;;4.10;1.63;;;26.20;41.20;;;;;;4955814;29;20162;-41
2021/08/28 06:56:23;;;;;;;2.42;1.58;;;26.20;41.10;;;;;;4955652;29;20475;-37
2021/08/28 06:58:48;;;;;;;2.38;1.63;;;26.20;41.10;;;;;;4955561;29;20031;-40
2021/08/28 07:01:14;;;;;;;6.60;1.80;;;26.20;41.10;;;;;;4938439;29;20122;-39
2021/08/28 07:03:40;;;;;;;5.88;1.50;;;26.20;41.10;;;;;;4953899;29;20055;-40
2021/08/28 07:06:06;;;;;;;7.15;1.38;;;26.20;41.10;;;;;;4954295;29;20133;-42
2021/08/28 07:08:31;;;;;;;3.42;1.27;;;26.20;41.20;;;;;;4954678;29;20028;-40
2021/08/28 07:10:57;;;;;;;4.05;1.30;;;26.20;41.20;;;;;;4955323;29;20030;-40
2021/08/28 07:13:23;;;;;;;3.35;1.15;;;26.20;41.20;;;;;;4956211;29;20458;-41
2021/08/28 07:15:49;;;;;;;2.22;1.40;;;26.20;41.20;;;;;;4955375;29;20035;-40
2021/08/28 07:18:15;;;;;;;3.42;1.70;;;26.20;41.10;;;;;;4954894;29;20035;-38
2021/08/28 07:20:41;;;;;;;3.55;1.80;;;26.20;41.50;;;;;;4953445;29;20043;-41
2021/08/28 07:23:07;;;;;;;4.70;1.70;;;26.20;41.10;;;;;;4955277;29;20110;-39
2021/08/28 07:25:37;;;;;;;5.55;1.65;;;26.20;41.10;;;;;;4953998;29;20142;-40
2021/08/28 07:28:05;;;;;;;4.95;1.67;;;26.20;41.10;;;;;;4954820;29;20090;-38
2021/08/28 07:30:30;;;;;;;5.05;1.50;;;26.20;41.10;;;;;;4953581;29;20024;-39
2021/08/28 07:32:56;;;;;;;4.85;1.65;;;26.20;41.10;;;;;;4952921;29;20031;-38
2021/08/28 07:35:22;;;;;;;2.80;1.50;;;26.20;41.10;;;;;;4954677;29;20090;-38
2021/08/28 07:37:48;;;;;;;5.03;1.70;;;26.20;41.10;;;;;;4953136;29;20123;-40
2021/08/28 07:40:13;;;;;;;2.63;1.52;;;26.20;41.10;;;;;;4937353;29;20028;-38
2021/08/28 07:42:39;;;;;;;4.05;1.42;;;26.20;41.10;;;;;;4952834;29;20114;-39
2021/08/28 07:45:05;;;;;;;3.78;1.40;;;26.20;41.20;;;;;;4954307;29;20035;-38
2021/08/28 07:47:31;;;;;;;5.20;1.50;;;26.20;41.10;;;;;;4954360;29;20035;-41
2021/08/28 07:49:57;;;;;;;4.15;1.40;;;26.20;41.20;;;;;;4952875;29;20385;-38
2021/08/28 07:52:23;;;;;;;2.78;1.70;;;26.20;41.00;;;;;;4953473;29;20145;-39
2021/08/28 07:54:48;;;;;;;3.15;1.58;;;26.20;41.10;;;;;;4954161;29;20028;-42
2021/08/28 07:57:14;;;;;;;5.10;1.73;;;26.20;41.00;;;;;;4954401;29;20055;-40
2021/08/28 07:59:40;;;;;;;3.33;1.90;;;26.20;41.10;;;;;;4953778;29;20437;-37
2021/08/28 08:02:05;;;;;;;4.22;1.70;;;26.20;41.10;;;;;;4954525;29;20035;-37
2021/08/28 08:04:32;;;;;;;3.80;1.67;;;26.20;41.10;;;;;;4954102;29;20429;-40
2021/08/28 08:06:58;;;;;;;3.13;1.80;;;26.20;41.10;;;;;;4953433;29;20434;-38
2021/08/28 08:09:26;;;;;;;2.83;1.75;;;26.20;41.30;;;;;;4952717;29;20095;-37
2021/08/28 08:11:52;;;;;;;4.68;1.75;;;26.20;41.40;;;;;;4951914;29;20436;-37
2021/08/28 08:14:19;;;;;;;4.22;1.45;;;26.20;41.50;;;;;;4952911;29;20495;-38
2021/08/28 08:16:45;;;;;;;3.25;1.90;;;26.20;41.50;;;;;;4954669;29;20062;-37
2021/08/28 08:19:12;;;;;;;5.18;2.05;;;26.20;41.50;;;;;;4952735;29;20074;-41
2021/08/28 08:21:39;;;;;;;7.80;2.10;;;26.20;41.50;;;;;;4952761;29;20090;-38
2021/08/28 08:24:05;;;;;;;4.60;2.20;;;26.20;41.70;;;;;;4936897;29;20196;-37
2021/08/28 08:26:31;;;;;;;3.80;1.80;;;26.20;41.70;;;;;;4936248;29;20035;-41
2021/08/28 08:28:59;;;;;;;3.63;1.73;;;26.20;41.80;;;;;;4952005;28;20027;-40
2021/08/28 08:31:25;;;;;;;3.83;1.98;;;26.20;41.80;;;;;;4952206;29;20027;-37
2021/08/28 08:33:50;;;;;;;4.55;1.90;;;26.20;41.80;;;;;;4952942;29;20042;-38
2021/08/28 08:36:16;;;;;;;6.45;2.00;;;26.20;41.80;;;;;;4952048;29;20035;-38
2021/08/28 08:38:42;;;;;;;6.60;2.15;;;26.20;41.80;;;;;;4952222;29;20032;-44
2021/08/28 08:41:10;;;;;;;3.08;1.90;;;26.20;41.80;;;;;;4953769;29;20030;-44
2021/08/28 08:43:37;;;;;;;3.63;1.63;;;26.20;41.80;;;;;;4953464;29;20049;-40
2021/08/28 08:46:04;;;;;;;3.75;1.70;;;26.20;41.80;;;;;;4952942;29;20120;-38
2021/08/28 08:48:32;;;;;;;6.30;2.10;;;26.30;41.70;;;;;;4952497;29;20027;-37
2021/08/28 08:50:59;;;;;;;5.45;1.95;;;26.30;41.60;;;;;;4953016;29;20027;-38
2021/08/28 08:53:29;;;;;;;2.75;1.60;;;26.30;41.50;;;;;;4952396;29;20031;-38
2021/08/28 08:55:56;;;;;;;4.95;1.95;;;26.30;41.70;;;;;;4953169;29;20053;-38
2021/08/28 08:58:22;;;;;;;4.72;1.55;;;26.30;41.70;;;;;;4952331;29;20502;-38
2021/08/28 09:00:48;;;;;;;7.15;1.75;;;26.30;41.60;;;;;;4951890;29;20061;-37
2021/08/28 09:03:14;;;;;;;9.35;1.98;;;26.30;41.60;;;;;;4952109;29;20027;-38
2021/08/28 09:05:39;;;;;;;6.00;1.73;;;26.30;41.60;;;;;;4951988;29;20067;-39
2021/08/28 09:08:05;;;;;;;3.80;1.67;;;26.30;41.70;;;;;;4951606;29;20086;-39
2021/08/28 09:10:31;;;;;;;2.65;1.50;;;26.30;41.70;;;;;;4952269;29;20476;-38
2021/08/28 09:13:15;;;;;;;5.55;1.70;;;26.30;41.70;;;;;;4952954;29;20102;-39
2021/08/28 09:15:45;;;;;;;4.72;1.70;;;26.20;41.80;;;;;;4953375;29;20117;-40
2021/08/28 09:18:11;;;;;;;4.32;1.70;;;26.30;41.70;;;;;;4953240;29;20031;-38
2021/08/28 09:20:38;;;;;;;3.63;1.85;;;26.30;41.70;;;;;;4951850;29;20078;-37
2021/08/28 09:23:10;;;;;;;3.83;2.08;;;26.30;41.70;;;;;;4951405;29;20031;-38
2021/08/28 09:25:40;;;;;;;3.85;1.52;;;26.30;41.70;;;;;;4935797;29;20043;-41
2021/08/28 09:28:08;;;;;;;3.75;1.67;;;26.30;41.70;;;;;;4929645;29;20042;-38
2021/08/28 09:30:46;;;;;;;6.63;1.45;;;26.30;41.70;;;;;;4952688;29;20126;-44
2021/08/28 09:33:13;;;;;;;3.90;1.83;;;26.30;41.70;;;;;;4953649;29;20043;-41
2021/08/28 09:35:46;;;;;;;3.22;1.50;;;26.30;41.50;;;;;;4953456;29;20042;-45
2021/08/28 09:38:20;;;;;;;3.30;1.55;;;26.30;41.60;;;;;;4935980;29;20094;-38
2021/08/28 09:40:52;;;;;;;2.58;1.60;;;26.30;41.60;;;;;;4954940;28;20114;-46
2021/08/28 09:43:19;;;;;;;29.92;2.67;;;26.30;41.60;;;;;;4955416;29;20074;-38
2021/08/28 09:45:48;;;;;;;3.65;1.38;;;26.30;41.60;;;;;;4954621;29;20039;-38
2021/08/28 09:48:16;;;;;;;4.78;1.50;;;26.30;41.40;;;;;;4954785;29;20027;-40
2021/08/28 09:50:43;;;;;;;2.33;1.40;;;26.30;41.20;;;;;;4955167;29;20027;-38
2021/08/28 09:53:17;;;;;;;3.15;1.50;;;26.30;41.00;;;;;;4953971;29;20114;-38
2021/08/28 09:55:43;;;;;;;;;;;26.30;40.90;;;;;;4956503;29;20142;-37
2021/08/28 09:58:11;;;;;;;2.40;1.35;;;26.30;40.90;;;;;;4955814;29;20035;-38
2021/08/28 10:00:45;;;;;;;2.78;1.42;;;26.30;40.60;;;;;;4938614;29;20054;-38
2021/08/28 10:03:12;;;;;;;2.05;1.20;;;26.20;40.60;;;;;;4954012;29;20592;-41
2021/08/28 10:05:42;;;;;;;4.78;1.20;;;26.20;40.70;;;;;;4938538;29;20122;-39
2021/08/28 10:10:55;;;;;;;2.25;1.20;;;26.10;40.90;;;;;;4955518;29;20427;-40
2021/08/28 10:13:23;;;;;;;3.08;1.55;;;26.10;41.00;;;;;;4954095;29;20130;-40
2021/08/28 10:15:50;;;;;;;2.35;1.35;;;26.10;41.10;;;;;;4953912;29;20031;-43
2021/08/28 10:18:17;;;;;;;2.15;1.35;;;26.10;41.30;;;;;;4955433;29;20039;-40
2021/08/28 10:20:43;;;;;;;3.08;1.20;;;26.00;41.40;;;;;;4953737;29;20028;-40
2021/08/28 10:23:10;;;;;;;3.55;1.25;;;26.00;41.40;;;;;;4953271;29;20262;-40
2021/08/28 10:25:39;;;;;;;1.90;1.33;;;26.00;41.40;;;;;;4955556;29;20043;-39
2021/08/28 10:28:07;;;;;;;2.35;1.63;;;26.00;41.40;;;;;;4953095;29;20024;-39
2021/08/28 10:30:35;;;;;;;10.85;1.40;;;26.00;41.40;;;;;;4955007;29;20027;-44
2021/08/28 10:33:02;;;;;;;2.85;1.33;;;26.10;41.40;;;;;;4952977;29;20039;-38
2021/08/28 10:35:28;;;;;;;4.18;1.60;;;26.10;41.30;;;;;;4955160;29;20027;-38
2021/08/28 10:37:53;;;;;;;4.28;1.30;;;26.10;41.30;;;;;;4954779;29;20435;-37
2021/08/28 10:40:23;;;;;;;2.40;1.15;;;26.10;41.30;;;;;;4937865;29;20031;-38
2021/08/28 10:42:52;;;;;;;2.28;1.23;;;26.10;41.40;;;;;;4954551;29;20034;-39
2021/08/28 10:45:33;;;;;;;2.25;1.08;;;26.10;41.40;;;;;;4953717;29;20122;-41
2021/08/28 10:48:01;;;;;;;2.20;1.20;;;26.10;41.50;;;;;;4952878;29;20087;-40
2021/08/28 10:50:32;;;;;;;2.67;1.27;;;26.10;41.50;;;;;;4955409;29;20031;-47
2021/08/28 10:52:59;;;;;;;2.30;1.10;;;26.20;41.50;;;;;;4952322;28;20480;-40
2021/08/28 10:55:41;;;;;;;3.30;1.30;;;26.20;41.50;;;;;;4954600;29;20094;-39
2021/08/28 10:58:19;;;;;;;2.60;1.10;;;26.20;41.40;;;;;;4954477;29;20114;-38
2021/08/28 11:00:53;;;;;;;2.17;1.10;;;26.20;41.40;;;;;;4953949;29;20050;-38
2021/08/28 11:03:30;;;;;;;2.95;1.40;;;26.20;41.40;;;;;;4954898;29;20114;-39
2021/08/28 11:06:18;;;;;;;4.93;1.20;;;26.20;41.30;;;;;;4954014;29;20039;-41
2021/08/28 11:08:46;;;;;;;3.63;1.30;;;26.20;41.50;;;;;;4955184;29;20035;-44
2021/08/28 11:11:44;;;;;;;3.72;1.20;;;26.30;41.40;;;;;;4952964;29;20175;-39
2021/08/28 11:14:17;;;;;;;4.85;1.55;;;26.30;41.60;;;;;;4945081;29;20031;-39
2021/08/28 11:16:42;;;;;;;4.65;1.40;;;26.30;41.40;;;;;;4954432;29;20027;-40
2021/08/28 11:19:13;;;;;;;5.15;1.40;;;26.30;41.30;;;;;;4952688;29;20030;-39
2021/08/28 11:21:47;;;;;;;9.77;1.65;;;26.30;41.40;;;;;;4953019;29;20031;-38
2021/08/28 11:24:16;;;;;;;4.35;1.42;;;26.30;41.40;;;;;;4953733;29;20027;-38
2021/08/28 11:26:43;;;;;;;12.15;1.80;;;26.30;41.20;;;;;;4953173;29;20039;-39
2021/08/28 11:29:23;;;;;;;10.27;1.75;;;26.30;41.20;;;;;;4953434;29;20106;-39
2021/08/28 11:32:13;;;;;;;8.75;1.90;;;26.30;41.30;;;;;;4954105;29;20170;-39
2021/08/28 11:34:51;;;;;;;10.43;2.55;;;26.30;41.30;;;;;;4952644;29;20042;-41
2021/08/28 11:37:27;;;;;;;13.45;1.95;;;26.40;41.30;;;;;;4953445;29;20031;-39
2021/08/28 11:39:59;;;;;;;7.57;2.45;;;26.30;41.20;;;;;;4954401;29;20109;-39
2021/08/28 11:42:27;;;;;;;7.78;2.20;;;26.30;41.20;;;;;;4953808;29;20028;-43
2021/08/28 11:44:55;;;;;;;12.93;2.40;;;26.30;41.20;;;;;;4952392;29;20027;-39
2021/08/28 11:47:22;;;;;;;6.63;2.75;;;26.30;41.20;;;;;;4953112;29;20041;-41
2021/08/28 11:49:52;;;;;;;6.93;2.13;;;26.30;41.20;;;;;;4952242;29;20042;-40
2021/08/28 11:52:19;;;;;;;11.63;2.10;;;26.30;41.00;;;;;;4951790;29;20031;-39
2021/08/28 11:54:46;;;;;;;6.47;2.15;;;26.30;41.00;;;;;;4952487;29;20037;-39
2021/08/28 11:57:13;;;;;;;7.15;3.08;;;26.30;41.10;;;;;;4948040;29;20055;-39
2021/08/28 11:59:40;;;;;;;10.50;4.03;;;26.30;41.20;;;;;;4934483;29;20035;-40
2021/08/28 12:02:07;;;;;;;13.38;4.00;;;26.30;41.30;;;;;;4933886;29;20040;-38
2021/08/28 12:04:35;;;;;;;11.57;3.05;;;26.30;41.30;;;;;;4932677;29;20122;-44
2021/08/28 12:07:02;;;;;;;4.90;2.30;;;26.30;41.30;;;;;;4933481;29;20051;-39
2021/08/28 12:09:29;;;;;;;5.80;2.72;;;26.30;41.20;;;;;;4948789;29;20083;-39
2021/08/28 12:11:56;;;;;;;8.23;2.55;;;26.30;41.00;;;;;;4949014;29;20477;-41
2021/08/28 12:14:25;;;;;;;10.02;2.40;;;26.30;40.90;;;;;;4933750;29;20031;-44
2021/08/28 12:16:51;;;;;;;4.35;1.67;;;26.20;41.00;;;;;;4934709;29;20110;-41
2021/08/28 12:19:31;;;;;;;8.77;2.42;;;26.20;41.50;;;;;;4934129;29;20351;-38
2021/08/28 12:22:00;;;;;;;8.80;2.15;;;26.10;43.80;;;;;;4949273;29;20035;-37
2021/08/28 12:24:39;;;;;;;12.65;2.08;;;26.20;44.30;;;;;;4948981;29;20035;-40
2021/08/28 12:27:08;;;;;;;6.57;2.13;;;26.20;44.60;;;;;;4948583;29;20094;-38
2021/08/28 12:29:37;;;;;;;5.10;2.10;;;26.10;44.60;;;;;;4948910;29;20521;-37
2021/08/28 12:32:15;;;;;;;8.68;2.13;;;26.20;44.70;;;;;;4933628;29;20039;-38
2021/08/28 12:34:43;;;;;;;3.75;1.70;;;26.10;44.50;;;;;;4932830;29;20036;-38
2021/08/28 12:37:16;;;;;;;4.10;1.60;;;26.10;44.70;;;;;;4933565;29;20524;-38
2021/08/28 12:39:45;;;;;;;3.72;1.63;;;26.10;44.60;;;;;;4934203;29;20024;-39
2021/08/28 12:42:14;;;;;;;3.65;1.63;;;26.10;44.40;;;;;;4948096;29;20036;-38
2021/08/28 12:44:46;;;;;;;8.48;1.50;;;26.20;44.30;;;;;;4948249;29;20027;-41
2021/08/28 12:47:14;;;;;;;4.75;1.50;;;26.10;44.10;;;;;;4933564;29;20123;-39
2021/08/28 12:49:41;;;;;;;4.47;1.40;;;26.10;44.10;;;;;;4948006;29;20027;-38
2021/08/28 12:52:13;;;;;;;7.63;2.63;;;26.10;44.10;;;;;;4933377;29;20028;-40
2021/08/28 12:54:56;;;;;;;6.15;2.15;;;26.10;44.10;;;;;;4948265;29;20110;-42